Time;durP1;ratioP1;P1;durP2;ratioP2;P2;SDS_P1;SDS_P2;PMS_P1;PMS_P2;Temp;Humidity;BMP_temperature;BMP_pressure;BME280_temperature;BME280_humidity;BME280_pressure;Samples;Min_cycle;Max_cycle;Signal;HPM_P1;HPM_P2
2024/01/01 00:01:13;;;;;;;14.63;12.47;;;7.70;50.50;;;;;;20763;6851;119924;-87
2024/01/01 00:03:38;;;;;;;19.80;15.70;;;7.50;50.70;;;;;;20542;6851;337330;-86
2024/01/01 00:06:04;;;;;;;21.58;15.40;;;7.70;50.70;;;;;;20770;6851;117541;-89
2024/01/01 00:08:31;;;;;;;22.20;15.27;;;7.70;50.50;;;;;;20744;6851;117810;-90
2024/01/01 00:10:56;;;;;;;17.57;14.63;;;7.60;50.70;;;;;;20764;6851;118349;-89
2024/01/01 00:13:22;;;;;;;18.33;16.33;;;7.60;51.10;;;;;;20452;6851;310496;-91
2024/01/01 00:15:48;;;;;;;20.37;15.88;;;7.70;51.00;;;;;;20766;6851;117994;-90
2024/01/01 00:18:14;;;;;;;20.17;15.32;;;7.80;50.80;;;;;;20765;6851;117560;-90
2024/01/01 00:20:40;;;;;;;18.07;16.17;;;7.80;51.00;;;;;;20524;6851;439944;-90
2024/01/01 00:23:07;;;;;;;19.63;14.73;;;8.00;51.00;;;;;;20720;6849;117807;-90
2024/01/01 00:25:35;;;;;;;19.67;17.57;;;8.00;50.80;;;;;;20542;6851;279507;-89
2024/01/01 00:28:00;;;;;;;16.73;14.03;;;8.20;50.60;;;;;;20762;6851;117564;-91
2024/01/01 00:30:29;;;;;;;24.07;17.23;;;8.20;50.70;;;;;;20741;6851;120483;-92
2024/01/01 00:32:54;;;;;;;17.43;13.13;;;8.10;50.50;;;;;;20813;6851;116811;-89
2024/01/01 00:35:20;;;;;;;20.50;14.27;;;8.00;50.80;;;;;;20780;6851;117468;-89
2024/01/01 00:37:47;;;;;;;20.15;15.40;;;7.90;50.90;;;;;;20766;6851;117428;-90
2024/01/01 00:40:14;;;;;;;25.17;21.35;;;8.00;50.80;;;;;;20544;6851;310299;-90
2024/01/01 00:42:42;;;;;;;23.20;18.37;;;8.00;50.80;;;;;;20734;6851;119518;-93
2024/01/01 00:45:09;;;;;;;25.33;21.83;;;8.10;50.50;;;;;;20543;6851;310683;-90
2024/01/01 00:47:34;;;;;;;23.90;21.45;;;8.30;50.20;;;;;;20558;6849;308382;-90
2024/01/01 00:50:03;;;;;;;20.27;16.90;;;8.60;49.70;;;;;;20763;6850;117456;-89
2024/01/01 00:52:27;;;;;;;20.00;15.47;;;8.60;49.40;;;;;;20735;6850;118356;-87
2024/01/01 00:54:54;;;;;;;21.30;19.10;;;8.40;49.70;;;;;;20558;6851;284044;-87
2024/01/01 00:57:19;;;;;;;20.77;17.03;;;8.40;49.40;;;;;;20766;6851;120648;-86
2024/01/01 00:59:45;;;;;;;22.00;18.80;;;8.30;49.40;;;;;;20554;6851;280293;-87
2024/01/01 01:02:12;;;;;;;20.73;18.53;;;8.40;49.40;;;;;;20553;6851;307954;-89
2024/01/01 01:04:37;;;;;;;20.03;17.90;;;8.60;49.20;;;;;;20532;6851;279654;-86
2024/01/01 01:07:05;;;;;;;19.00;17.07;;;8.80;48.90;;;;;;20548;6851;299404;-83
2024/01/01 01:09:29;;;;;;;15.25;13.75;;;8.90;48.60;;;;;;20748;6851;68420;-88
2024/01/01 01:11:54;;;;;;;14.65;12.45;;;8.70;48.70;;;;;;20758;6851;117206;-87
2024/01/01 01:14:20;;;;;;;17.87;16.03;;;8.50;49.60;;;;;;20549;6851;307981;-86
2024/01/01 01:16:46;;;;;;;20.53;14.53;;;8.50;49.60;;;;;;20621;6850;118187;-82
2024/01/01 01:19:12;;;;;;;16.20;14.53;;;8.40;49.60;;;;;;20550;6851;309162;-82
2024/01/01 01:21:37;;;;;;;13.90;12.37;;;8.50;49.80;;;;;;20780;6849;118239;-81
2024/01/01 01:24:03;;;;;;;14.80;11.33;;;8.50;49.60;;;;;;20792;6851;117483;-82
2024/01/01 01:26:28;;;;;;;12.33;10.37;;;8.30;49.90;;;;;;20738;6851;123761;-85
2024/01/01 01:28:54;;;;;;;15.30;10.43;;;8.20;50.30;;;;;;20776;6851;117755;-83
2024/01/01 01:31:20;;;;;;;15.23;13.20;;;8.00;50.50;;;;;;20574;6851;280487;-82
2024/01/01 01:33:45;;;;;;;15.70;14.17;;;8.20;50.80;;;;;;20579;6851;279695;-83
2024/01/01 01:36:14;;;;;;;13.53;9.80;;;8.50;50.60;;;;;;20786;6849;117062;-83
2024/01/01 01:38:38;;;;;;;11.57;10.48;;;8.60;50.40;;;;;;20554;6851;278909;-83
2024/01/01 01:41:03;;;;;;;11.80;10.60;;;8.70;50.40;;;;;;20561;6851;337930;-83
2024/01/01 01:43:30;;;;;;;10.70;8.50;;;8.80;49.70;;;;;;20786;6851;116626;-83
2024/01/01 01:45:55;;;;;;;11.57;10.30;;;8.80;49.70;;;;;;20580;6851;281946;-84
2024/01/01 01:48:22;;;;;;;10.07;8.90;;;8.80;49.80;;;;;;20776;6851;117517;-82
2024/01/01 01:50:47;;;;;;;10.20;7.77;;;8.80;49.70;;;;;;20776;6851;118302;-85
2024/01/01 01:53:13;;;;;;;11.23;8.43;;;8.60;50.10;;;;;;20751;6851;118815;-86
2024/01/01 01:55:38;;;;;;;9.50;8.00;;;8.40;50.50;;;;;;20762;6851;117432;-84
2024/01/01 01:58:04;;;;;;;10.15;7.90;;;8.20;50.80;;;;;;20756;6849;118948;-83
2024/01/01 02:00:29;;;;;;;11.37;10.17;;;8.00;51.70;;;;;;20562;6850;309659;-83
2024/01/01 02:02:57;;;;;;;10.30;8.23;;;8.10;51.40;;;;;;20777;6850;117067;-83
2024/01/01 02:05:21;;;;;;;9.30;8.38;;;8.10;51.20;;;;;;20757;6851;117885;-82
2024/01/01 02:07:46;;;;;;;12.00;9.57;;;8.00;51.30;;;;;;20770;6851;116975;-83
2024/01/01 02:10:13;;;;;;;10.70;8.75;;;7.80;51.40;;;;;;20767;6851;118487;-83
2024/01/01 02:12:39;;;;;;;14.87;11.85;;;7.70;51.70;;;;;;20566;6851;308965;-82
2024/01/01 02:15:05;;;;;;;11.15;8.55;;;7.80;52.00;;;;;;20792;6851;118476;-83
2024/01/01 02:17:30;;;;;;;12.10;10.80;;;7.80;51.70;;;;;;20586;6851;324917;-83
2024/01/01 02:19:56;;;;;;;9.88;8.65;;;8.00;51.90;;;;;;20797;6851;116595;-83
2024/01/01 02:22:21;;;;;;;9.73;8.18;;;8.00;51.70;;;;;;20786;6851;117880;-82
2024/01/01 02:24:48;;;;;;;10.07;8.30;;;7.80;51.90;;;;;;20813;6851;116638;-82
2024/01/01 02:27:14;;;;;;;8.87;7.97;;;7.60;52.10;;;;;;20807;6851;121040;-82
2024/01/01 02:29:39;;;;;;;7.83;6.97;;;7.50;52.40;;;;;;20795;6851;117284;-83
2024/01/01 02:32:05;;;;;;;8.80;7.63;;;7.30;52.60;;;;;;20594;6851;278343;-82
2024/01/01 02:34:30;;;;;;;8.83;7.97;;;7.50;53.20;;;;;;20579;6851;278153;-82
2024/01/01 02:36:56;;;;;;;9.17;8.17;;;7.90;53.00;;;;;;20598;6851;305862;-83
2024/01/01 02:39:22;;;;;;;10.15;6.20;;;8.20;52.50;;;;;;20808;6851;118239;-82
2024/01/01 02:41:48;;;;;;;5.60;5.10;;;8.00;52.10;;;;;;20802;6851;117522;-82
2024/01/01 02:44:14;;;;;;;8.07;5.13;;;7.80;52.50;;;;;;20806;6851;117145;-82
2024/01/01 02:46:40;;;;;;;5.18;4.40;;;7.60;53.00;;;;;;20787;6851;118065;-82
2024/01/01 02:49:06;;;;;;;9.23;7.60;;;7.30;53.50;;;;;;20807;6851;117348;-82
2024/01/01 02:51:31;;;;;;;4.53;4.10;;;7.30;53.50;;;;;;20800;6851;118003;-82
2024/01/01 02:53:57;;;;;;;5.90;5.33;;;7.20;53.60;;;;;;20592;6851;278223;-83
2024/01/01 02:56:25;;;;;;;5.20;4.17;;;7.40;54.20;;;;;;20764;6851;117802;-83
2024/01/01 02:58:51;;;;;;;6.07;5.47;;;7.50;53.90;;;;;;20603;6847;295971;-83
2024/01/01 03:01:18;;;;;;;5.47;4.97;;;7.70;54.10;;;;;;20580;6851;308229;-81
2024/01/01 03:03:42;;;;;;;5.60;4.22;;;8.00;53.80;;;;;;20755;6862;117165;-81
2024/01/01 03:06:09;;;;;;;6.47;4.57;;;8.00;53.40;;;;;;20586;6851;337760;-83
2024/01/01 03:08:37;;;;;;;6.23;4.43;;;8.10;53.50;;;;;;20750;6862;116313;-83
2024/01/01 03:11:00;;;;;;;5.40;3.47;;;8.00;53.20;;;;;;20761;6860;117216;-83
2024/01/01 03:13:26;;;;;;;6.55;4.80;;;7.80;53.40;;;;;;20594;6850;278475;-83
2024/01/01 03:15:51;;;;;;;5.30;4.80;;;7.80;53.60;;;;;;20599;6850;278311;-83
2024/01/01 03:18:17;;;;;;;7.10;4.67;;;8.10;53.30;;;;;;20557;6861;308629;-82
2024/01/01 03:20:42;;;;;;;6.40;4.78;;;8.30;52.80;;;;;;20589;6847;279596;-83
2024/01/01 03:23:08;;;;;;;4.22;3.80;;;8.50;52.50;;;;;;20801;6851;116586;-81
2024/01/01 03:25:33;;;;;;;5.40;3.90;;;8.40;52.50;;;;;;20772;6861;118249;-83
2024/01/01 03:28:00;;;;;;;5.70;5.07;;;8.20;53.30;;;;;;20601;6847;338113;-83
2024/01/01 03:30:25;;;;;;;8.40;5.25;;;8.10;53.20;;;;;;20569;6851;340516;-82
2024/01/01 03:32:51;;;;;;;8.43;4.82;;;8.40;53.00;;;;;;20799;6851;117662;-83
2024/01/01 03:35:17;;;;;;;5.45;3.30;;;8.40;52.80;;;;;;20784;6861;117842;-82
2024/01/01 03:37:43;;;;;;;4.00;3.57;;;8.10;53.00;;;;;;20552;6861;278676;-83
2024/01/01 03:40:09;;;;;;;3.70;3.03;;;8.20;53.10;;;;;;20793;6851;116455;-83
2024/01/01 03:42:35;;;;;;;4.97;3.00;;;8.20;52.90;;;;;;20777;6851;117541;-83
2024/01/01 03:45:01;;;;;;;3.15;2.80;;;8.00;53.10;;;;;;20812;6847;117460;-83
2024/01/01 03:47:28;;;;;;;4.17;3.40;;;7.90;53.30;;;;;;20607;6847;307576;-83
2024/01/01 03:49:54;;;;;;;4.13;3.57;;;7.90;53.30;;;;;;20598;6847;308356;-83
2024/01/01 03:52:19;;;;;;;4.53;2.80;;;8.20;52.80;;;;;;20803;6847;122081;-83
2024/01/01 03:54:46;;;;;;;3.33;3.03;;;8.10;52.40;;;;;;20587;6847;321963;-82
2024/01/01 03:57:12;;;;;;;3.20;2.90;;;8.10;52.60;;;;;;20808;6847;117793;-83
2024/01/01 03:59:37;;;;;;;3.40;3.10;;;8.10;52.60;;;;;;20599;6847;306306;-83
2024/01/01 04:02:03;;;;;;;2.53;1.90;;;8.10;52.90;;;;;;20811;6847;116351;-83
2024/01/01 04:04:29;;;;;;;2.93;2.57;;;8.10;53.00;;;;;;20574;6847;338971;-83
2024/01/01 04:06:54;;;;;;;2.85;2.03;;;8.10;53.10;;;;;;20806;6847;116502;-83
2024/01/01 04:09:20;;;;;;;1.95;1.83;;;8.10;53.00;;;;;;20808;6847;118812;-83
2024/01/01 04:11:45;;;;;;;3.03;2.60;;;7.90;53.30;;;;;;20582;6847;340471;-83
2024/01/01 04:14:11;;;;;;;2.00;1.90;;;8.00;53.40;;;;;;20795;6847;121251;-83
2024/01/01 04:16:37;;;;;;;3.67;2.30;;;8.00;53.20;;;;;;20563;6847;279456;-83
2024/01/01 04:19:02;;;;;;;3.77;2.50;;;8.00;53.10;;;;;;20570;6847;297262;-83
2024/01/01 04:21:28;;;;;;;2.10;1.90;;;8.30;52.60;;;;;;20790;6845;116314;-83
2024/01/01 04:23:58;;;;;;;2.77;2.17;;;8.20;52.40;;;;;;20574;6846;308933;-83
2024/01/01 04:26:22;;;;;;;2.23;2.10;;;8.20;52.50;;;;;;20552;6846;308044;-83
2024/01/01 04:28:47;;;;;;;3.43;2.50;;;8.40;51.90;;;;;;20575;6846;309636;-83
2024/01/01 04:31:13;;;;;;;2.30;2.10;;;8.50;51.90;;;;;;20572;6846;308230;-83
2024/01/01 04:33:39;;;;;;;3.12;2.20;;;8.70;51.30;;;;;;20571;6847;320349;-83
2024/01/01 04:36:06;;;;;;;1.80;1.70;;;8.70;51.30;;;;;;20782;6847;117206;-82
2024/01/01 04:38:32;;;;;;;2.17;1.70;;;8.50;51.40;;;;;;20765;6847;117337;-82
2024/01/01 04:40:57;;;;;;;1.77;1.37;;;8.10;51.90;;;;;;20788;6847;118431;-83
2024/01/01 04:43:24;;;;;;;1.62;1.52;;;7.80;52.40;;;;;;20806;6847;118840;-83
2024/01/01 04:45:48;;;;;;;1.80;1.70;;;7.60;52.90;;;;;;20829;6847;118290;-82
2024/01/01 04:48:14;;;;;;;3.90;2.00;;;7.40;53.10;;;;;;20832;6847;116153;-82
2024/01/01 04:50:39;;;;;;;3.23;1.77;;;7.20;53.30;;;;;;20811;6847;117308;-81
2024/01/01 04:53:05;;;;;;;3.13;2.37;;;7.00;53.40;;;;;;20604;6847;333711;-82
2024/01/01 04:55:31;;;;;;;2.00;1.80;;;7.20;53.70;;;;;;20777;6847;117230;-83
2024/01/01 04:57:56;;;;;;;2.45;2.20;;;7.20;53.40;;;;;;20800;6847;117722;-82
2024/01/01 05:00:22;;;;;;;2.77;2.10;;;7.10;53.50;;;;;;20793;6847;118520;-82
2024/01/01 05:02:47;;;;;;;2.90;2.53;;;7.00;53.70;;;;;;20603;6847;308437;-82
2024/01/01 05:05:15;;;;;;;2.33;2.12;;;7.20;53.90;;;;;;20818;6847;117301;-82
2024/01/01 05:07:39;;;;;;;2.27;2.07;;;7.20;53.50;;;;;;20801;6847;116665;-82
2024/01/01 05:10:04;;;;;;;4.45;2.55;;;7.10;53.60;;;;;;20600;6847;307227;-82
2024/01/01 05:12:30;;;;;;;2.80;1.97;;;7.20;53.70;;;;;;20792;6847;117964;-83
2024/01/01 05:14:55;;;;;;;2.90;2.60;;;7.20;53.40;;;;;;20602;6847;308151;-83
2024/01/01 05:17:21;;;;;;;2.35;2.17;;;7.30;53.40;;;;;;20607;6847;337119;-82
2024/01/01 05:19:50;;;;;;;1.92;1.83;;;7.60;53.00;;;;;;20810;6847;117323;-82
2024/01/01 05:22:12;;;;;;;3.80;1.90;;;7.50;52.80;;;;;;20800;6847;116938;-83
2024/01/01 05:24:38;;;;;;;3.10;2.27;;;7.30;53.10;;;;;;20586;6847;337151;-82
2024/01/01 05:27:03;;;;;;;3.28;2.33;;;7.30;53.30;;;;;;20596;6847;308991;-82
2024/01/01 05:29:29;;;;;;;2.90;2.00;;;7.60;53.00;;;;;;20808;6847;118057;-82
2024/01/01 05:31:55;;;;;;;1.73;1.50;;;7.50;52.80;;;;;;20802;6847;117492;-83
2024/01/01 05:34:20;;;;;;;1.77;1.67;;;7.20;53.20;;;;;;20814;6845;117392;-83
2024/01/01 05:36:46;;;;;;;2.03;1.70;;;7.00;53.60;;;;;;20624;6846;117253;-82
2024/01/01 05:39:12;;;;;;;3.80;2.00;;;6.80;53.90;;;;;;20601;6846;309210;-82
2024/01/01 05:41:37;;;;;;;2.20;2.00;;;6.90;54.00;;;;;;20810;6846;116335;-82
2024/01/01 05:44:03;;;;;;;2.15;1.90;;;7.00;53.90;;;;;;20808;6847;123023;-83
2024/01/01 05:46:31;;;;;;;4.33;1.67;;;6.80;54.10;;;;;;20783;6847;118392;-83
2024/01/01 05:48:54;;;;;;;2.80;1.90;;;6.70;54.40;;;;;;20813;6847;117333;-82
2024/01/01 05:51:20;;;;;;;3.60;2.15;;;6.60;54.60;;;;;;20602;6847;336318;-82
2024/01/01 05:53:45;;;;;;;2.33;2.13;;;6.80;54.50;;;;;;20602;6847;338717;-83
2024/01/01 05:56:12;;;;;;;5.45;1.98;;;7.20;53.90;;;;;;20808;6847;116349;-82
2024/01/01 05:58:39;;;;;;;3.33;2.07;;;7.20;53.50;;;;;;20796;6847;117857;-82
2024/01/01 06:01:04;;;;;;;3.50;1.80;;;7.00;53.80;;;;;;20805;6847;117226;-83
2024/01/01 06:03:30;;;;;;;1.50;1.40;;;6.80;54.10;;;;;;20796;6847;67570;-82
2024/01/01 06:05:55;;;;;;;2.70;1.55;;;6.70;54.40;;;;;;20776;6847;117119;-83
2024/01/01 06:08:21;;;;;;;2.53;1.65;;;6.60;54.60;;;;;;20796;6847;119284;-83
2024/01/01 06:10:47;;;;;;;4.95;1.60;;;6.50;54.70;;;;;;20762;6858;118315;-82
2024/01/01 06:13:12;;;;;;;3.30;1.93;;;6.40;54.80;;;;;;20591;6847;307716;-82
2024/01/01 06:15:38;;;;;;;3.67;2.27;;;6.60;54.60;;;;;;20576;6851;308255;-85
2024/01/01 06:18:04;;;;;;;2.92;1.60;;;7.00;53.90;;;;;;20764;6862;120254;-82
2024/01/01 06:20:29;;;;;;;4.07;1.60;;;7.00;53.50;;;;;;20768;6851;117256;-83
2024/01/01 06:22:56;;;;;;;4.70;1.70;;;6.90;53.60;;;;;;20544;6862;337889;-82
2024/01/01 06:25:21;;;;;;;1.83;1.37;;;6.90;53.60;;;;;;20745;6867;117938;-82
2024/01/01 06:27:49;;;;;;;3.67;1.83;;;7.10;53.10;;;;;;20598;6847;278607;-82
2024/01/01 06:30:13;;;;;;;2.43;1.30;;;7.00;53.10;;;;;;20784;6851;116826;-82
2024/01/01 06:32:39;;;;;;;4.60;1.83;;;7.00;52.90;;;;;;20539;6851;308282;-81
2024/01/01 06:35:05;;;;;;;3.00;1.80;;;7.10;52.80;;;;;;20573;6862;288463;-83
2024/01/01 06:37:31;;;;;;;5.07;1.77;;;7.40;52.40;;;;;;20755;6862;117215;-82
2024/01/01 06:39:57;;;;;;;3.67;1.70;;;7.40;52.30;;;;;;20580;6851;327796;-82
2024/01/01 06:42:24;;;;;;;4.85;1.50;;;7.50;52.10;;;;;;20744;6862;118257;-83
2024/01/01 06:44:49;;;;;;;2.37;1.60;;;7.40;52.10;;;;;;20591;6845;307398;-82
2024/01/01 06:47:16;;;;;;;2.83;1.42;;;7.40;51.90;;;;;;20795;6850;118637;-83
2024/01/01 06:49:41;;;;;;;1.97;1.20;;;7.40;51.90;;;;;;20790;6850;116391;-82
2024/01/01 06:52:07;;;;;;;2.87;1.13;;;7.30;52.30;;;;;;20734;6861;117526;-83
2024/01/01 06:54:32;;;;;;;2.22;1.33;;;7.10;52.70;;;;;;20777;6846;119922;-82
2024/01/01 06:56:58;;;;;;;3.10;1.60;;;6.90;53.00;;;;;;20566;6851;336396;-82
2024/01/01 06:59:23;;;;;;;4.57;1.60;;;7.10;53.40;;;;;;20520;6861;308702;-83
2024/01/01 07:01:49;;;;;;;3.60;1.42;;;7.40;52.10;;;;;;20712;6867;116189;-81
2024/01/01 07:04:15;;;;;;;3.17;1.70;;;7.40;51.90;;;;;;20589;6847;308970;-82
2024/01/01 07:06:41;;;;;;;3.08;1.62;;;7.60;51.80;;;;;;20757;6847;116392;-82
2024/01/01 07:09:08;;;;;;;2.80;1.10;;;7.60;51.80;;;;;;20792;6847;117851;-83
2024/01/01 07:11:33;;;;;;;4.30;1.50;;;7.40;52.00;;;;;;20589;6847;278024;-82
2024/01/01 07:13:59;;;;;;;3.97;1.52;;;7.50;51.80;;;;;;20536;6847;336031;-82
2024/01/01 07:16:24;;;;;;;6.03;1.20;;;7.80;51.30;;;;;;20731;6847;117907;-82
2024/01/01 07:18:50;;;;;;;4.23;1.70;;;7.80;51.20;;;;;;20554;6847;279003;-82
2024/01/01 07:21:16;;;;;;;4.97;1.55;;;7.90;51.10;;;;;;20806;6847;117217;-83
2024/01/01 07:23:42;;;;;;;3.60;1.57;;;8.00;50.80;;;;;;20579;6847;279069;-82
2024/01/01 07:26:09;;;;;;;5.05;1.70;;;8.00;50.80;;;;;;20571;6847;308644;-82
2024/01/01 07:28:34;;;;;;;5.07;1.40;;;8.20;50.30;;;;;;20542;6847;308044;-83
2024/01/01 07:31:00;;;;;;;2.97;1.77;;;8.40;49.70;;;;;;20773;6847;117984;-83
2024/01/01 07:33:26;;;;;;;1.77;1.20;;;8.40;50.00;;;;;;20753;6847;118556;-83
2024/01/01 07:35:52;;;;;;;2.23;1.03;;;8.10;50.40;;;;;;20762;6847;117332;-84
2024/01/01 07:38:19;;;;;;;2.83;1.00;;;7.90;50.90;;;;;;20745;6847;117182;-81
2024/01/01 07:40:44;;;;;;;2.23;1.33;;;7.60;51.10;;;;;;20713;6847;119034;-83
2024/01/01 07:43:10;;;;;;;6.30;1.13;;;7.40;51.60;;;;;;20725;6847;118508;-83
2024/01/01 07:45:35;;;;;;;3.17;1.00;;;7.30;52.10;;;;;;20752;6847;118300;-82
2024/01/01 07:48:01;;;;;;;4.33;1.50;;;7.10;52.20;;;;;;20543;6847;309209;-83
2024/01/01 07:50:27;;;;;;;5.03;1.60;;;7.30;52.20;;;;;;20522;6847;310425;-84
2024/01/01 07:52:52;;;;;;;2.93;1.57;;;7.70;51.70;;;;;;20562;6847;307983;-83
2024/01/01 07:55:18;;;;;;;3.17;1.30;;;8.00;51.10;;;;;;20780;6847;117057;-83
2024/01/01 07:57:46;;;;;;;4.30;1.20;;;8.00;51.00;;;;;;20777;6845;118293;-83
2024/01/01 08:00:09;;;;;;;3.90;1.50;;;7.70;51.20;;;;;;20551;6846;295626;-84
2024/01/01 08:02:35;;;;;;;4.23;1.87;;;7.80;51.40;;;;;;20525;6846;307616;-83
2024/01/01 08:05:00;;;;;;;2.23;1.53;;;8.10;51.10;;;;;;20789;6846;117300;-82
2024/01/01 08:07:27;;;;;;;4.00;1.63;;;8.10;51.00;;;;;;20777;6847;117299;-83
2024/01/01 08:09:52;;;;;;;3.77;1.67;;;8.00;51.40;;;;;;20559;6847;306540;-83
2024/01/01 08:12:18;;;;;;;2.97;1.23;;;8.10;51.40;;;;;;20775;6847;117029;-82
2024/01/01 08:14:44;;;;;;;3.40;1.70;;;8.20;51.40;;;;;;20550;6847;309915;-84
2024/01/01 08:17:09;;;;;;;5.27;1.83;;;8.40;51.10;;;;;;20562;6847;310403;-85
2024/01/01 08:19:35;;;;;;;4.10;1.70;;;8.60;50.60;;;;;;20774;6847;117456;-85
2024/01/01 08:22:00;;;;;;;2.15;1.37;;;8.60;50.50;;;;;;20760;6847;118412;-86
2024/01/01 08:24:26;;;;;;;1.95;1.30;;;8.50;50.80;;;;;;20751;6847;117333;-87
2024/01/01 08:26:52;;;;;;;3.70;1.57;;;8.30;51.10;;;;;;20566;6847;337149;-87
2024/01/01 08:29:17;;;;;;;4.17;2.00;;;8.40;50.80;;;;;;20541;6847;279425;-86
2024/01/01 08:31:43;;;;;;;3.67;1.70;;;8.90;49.90;;;;;;20553;6847;296335;-86
2024/01/01 08:34:09;;;;;;;3.63;1.60;;;8.80;49.70;;;;;;20561;6847;308550;-85
2024/01/01 08:36:34;;;;;;;3.78;1.15;;;9.10;49.30;;;;;;20757;6847;118281;-87
2024/01/01 08:39:00;;;;;;;2.97;1.43;;;9.10;49.50;;;;;;20565;6847;278967;-86
2024/01/01 08:41:26;;;;;;;4.93;2.00;;;9.10;49.50;;;;;;20561;6847;308489;-85
2024/01/01 08:43:56;;;;;;;4.10;1.80;;;9.40;49.60;;;;;;20571;6847;277925;-88
2024/01/01 08:46:17;;;;;;;3.20;1.33;;;9.50;48.80;;;;;;20761;6847;117760;-86
2024/01/01 08:48:42;;;;;;;3.63;1.60;;;9.50;49.00;;;;;;20558;6847;304218;-85
2024/01/01 08:51:08;;;;;;;3.20;1.70;;;9.50;49.30;;;;;;20569;6847;276932;-84
2024/01/01 08:53:34;;;;;;;3.60;1.57;;;9.70;49.00;;;;;;20775;6847;117698;-86
2024/01/01 08:55:59;;;;;;;3.00;1.60;;;9.70;49.00;;;;;;20568;6847;279442;-85
2024/01/01 08:58:25;;;;;;;3.33;1.60;;;9.70;48.90;;;;;;20533;6847;279026;-86
2024/01/01 09:00:50;;;;;;;2.93;1.23;;;9.90;48.60;;;;;;20777;6847;117896;-85
2024/01/01 09:03:16;;;;;;;3.37;1.57;;;9.80;48.70;;;;;;20565;6847;307679;-90
2024/01/01 09:05:43;;;;;;;3.53;1.37;;;9.80;48.50;;;;;;20521;6847;308860;-89
2024/01/01 09:08:07;;;;;;;1.25;1.00;;;10.00;47.20;;;;;;20775;6845;117690;-87
2024/01/01 09:10:32;;;;;;;2.40;0.93;;;9.90;48.40;;;;;;20737;6846;117703;-88
2024/01/01 09:12:58;;;;;;;1.42;0.85;;;9.70;49.00;;;;;;20799;6846;116502;-86
2024/01/01 09:15:24;;;;;;;3.13;1.10;;;9.40;49.30;;;;;;20803;6846;120723;-88
2024/01/01 09:17:51;;;;;;;1.43;0.60;;;9.10;50.00;;;;;;20787;6846;117061;-89
2024/01/01 09:20:18;;;;;;;3.03;0.80;;;9.00;50.20;;;;;;20785;6847;117242;-88
2024/01/01 09:22:43;;;;;;;1.37;0.73;;;9.00;50.20;;;;;;20777;6847;117130;-87
2024/01/01 09:25:09;;;;;;;2.42;1.02;;;8.80;50.40;;;;;;20635;6847;308188;-89
2024/01/01 09:27:34;;;;;;;2.60;1.30;;;9.00;50.40;;;;;;20643;6847;281948;-87
2024/01/01 09:30:00;;;;;;;3.33;1.30;;;9.30;50.30;;;;;;20619;6847;326783;-83
2024/01/01 09:32:25;;;;;;;3.27;0.90;;;9.60;49.80;;;;;;20848;6847;116382;-86
2024/01/01 09:34:51;;;;;;;1.17;0.90;;;9.70;49.70;;;;;;20839;6847;117475;-85
2024/01/01 09:37:16;;;;;;;1.67;1.00;;;9.50;50.00;;;;;;20840;6847;117063;-87
2024/01/01 09:39:42;;;;;;;1.92;0.90;;;9.30;50.20;;;;;;21046;6644;73788;-83
2024/01/01 09:42:22;;;;;;;2.67;0.80;;;9.10;50.50;;;;;;21068;6727;67232;-86
2024/01/01 09:44:54;;;;;;;1.10;0.70;;;9.00;50.90;;;;;;21091;6727;113739;-90
2024/01/01 09:47:31;;;;;;;2.40;0.90;;;8.90;51.30;;;;;;20727;6856;118300;-88
2024/01/01 09:50:07;;;;;;;2.63;1.00;;;9.00;51.60;;;;;;20838;6796;116277;-87
2024/01/01 09:52:42;;;;;;;1.13;0.80;;;8.90;51.60;;;;;;20945;6751;117467;-86
2024/01/01 09:55:18;;;;;;;1.87;1.00;;;9.00;51.70;;;;;;20817;6736;331846;-86
2024/01/01 09:57:53;;;;;;;2.35;1.00;;;9.20;51.40;;;;;;20802;6736;277585;-88
2024/01/01 10:00:29;;;;;;;2.13;1.13;;;9.70;50.20;;;;;;20793;6721;276549;-88
2024/01/01 10:03:10;;;;;;;3.50;1.33;;;10.10;47.90;;;;;;20782;6721;276226;-86
2024/01/01 10:05:46;;;;;;;3.20;1.02;;;10.40;47.30;;;;;;20777;6721;276113;-88
2024/01/01 10:08:21;;;;;;;2.60;1.00;;;10.70;46.90;;;;;;20672;6722;309080;-88
2024/01/01 10:10:56;;;;;;;1.73;0.90;;;10.90;46.60;;;;;;20985;6728;116244;-88
2024/01/01 10:13:32;;;;;;;2.63;1.10;;;10.80;46.60;;;;;;21063;6715;118051;-88
2024/01/01 10:16:17;;;;;;;;;;;;;;;;;;;;;
2024/01/01 10:18:53;;;;;;;2.20;0.80;;;10.30;47.70;;;;;;20825;6716;117622;-89
2024/01/01 10:21:19;;;;;;;3.10;1.33;;;10.30;48.20;;;;;;20768;6721;335117;-87
2024/01/01 10:23:55;;;;;;;1.17;1.07;;;10.30;48.20;;;;;;20938;6721;117222;-89
2024/01/01 10:26:32;;;;;;;1.98;1.60;;;10.40;48.30;;;;;;20743;6721;306729;-87
2024/01/01 10:29:06;;;;;;;2.42;1.90;;;10.60;48.00;;;;;;20600;6721;278783;-91
2024/01/01 10:31:44;;;;;;;3.23;2.70;;;10.90;47.20;;;;;;20754;6722;292544;-86
2024/01/01 10:34:19;;;;;;;3.87;2.10;;;11.10;46.80;;;;;;20768;6721;305554;-86
2024/01/01 10:36:54;;;;;;;2.53;1.30;;;11.30;46.40;;;;;;20774;6721;275569;-85
2024/01/01 10:39:30;;;;;;;3.22;1.33;;;11.50;46.40;;;;;;20549;6722;309024;-87
2024/01/01 10:42:09;;;;;;;1.60;1.00;;;11.60;45.80;;;;;;20980;6722;122741;-86
2024/01/01 10:44:41;;;;;;;3.43;1.47;;;11.50;46.10;;;;;;20748;6722;305913;-87
2024/01/01 10:47:17;;;;;;;4.53;1.60;;;11.50;45.50;;;;;;20749;6722;278141;-87
2024/01/01 10:49:53;;;;;;;3.53;1.07;;;11.50;45.20;;;;;;20783;6722;117394;-87
2024/01/01 10:52:51;;;;;;;2.30;0.83;;;11.40;45.60;;;;;;20950;6722;117087;-90
2024/01/01 10:56:10;;;;;;;1.20;1.00;;;11.10;46.10;;;;;;20981;6722;119633;-84
2024/01/01 10:58:55;;;;;;;2.93;1.40;;;10.90;46.70;;;;;;20842;6722;118619;-86
2024/01/01 11:01:41;;;;;;;3.12;1.40;;;10.60;47.00;;;;;;20762;6722;334921;-87
2024/01/01 11:04:08;;;;;;;2.47;1.40;;;10.80;46.70;;;;;;20984;6722;119490;-87
2024/01/01 11:06:43;;;;;;;2.37;1.20;;;10.80;46.80;;;;;;21001;6722;117876;-88
2024/01/01 11:09:18;;;;;;;4.47;1.30;;;10.80;47.20;;;;;;20830;6723;118034;-90
2024/01/01 11:11:55;;;;;;;4.70;1.43;;;10.70;47.30;;;;;;20988;6722;117444;-91
2024/01/01 11:14:31;;;;;;;2.53;1.17;;;10.60;47.40;;;;;;20969;6722;119173;-88
2024/01/01 11:17:10;;;;;;;3.43;1.50;;;10.50;47.60;;;;;;20765;6722;291692;-90
2024/01/01 11:19:46;;;;;;;4.03;1.30;;;10.70;47.10;;;;;;20812;6722;67463;-88
2024/01/01 11:22:30;;;;;;;4.93;1.58;;;10.80;46.70;;;;;;20782;6722;276383;-87
2024/01/01 11:24:59;;;;;;;6.00;1.40;;;11.00;45.90;;;;;;20989;6722;68377;-91
2024/01/01 11:27:44;;;;;;;1.90;0.97;;;11.00;45.90;;;;;;20978;6722;120559;-93
2024/01/01 11:30:20;;;;;;;5.67;1.30;;;10.60;46.40;;;;;;20697;6780;119344;-87
2024/01/01 11:33:02;;;;;;;3.20;1.17;;;10.60;46.40;;;;;;20983;6722;116804;-85
2024/01/01 11:35:38;;;;;;;1.00;0.90;;;10.50;46.70;;;;;;20971;6723;116896;-88
2024/01/01 11:38:13;;;;;;;4.60;1.65;;;10.40;46.80;;;;;;20709;6723;308812;-90
2024/01/01 11:40:49;;;;;;;4.73;1.30;;;10.60;45.60;;;;;;20918;6740;116199;-89
2024/01/01 11:43:24;;;;;;;4.53;1.47;;;10.60;45.60;;;;;;20997;6741;67627;-90
2024/01/01 11:46:00;;;;;;;5.20;1.60;;;10.50;46.00;;;;;;20832;6755;117325;-89
2024/01/01 11:48:36;;;;;;;4.50;1.80;;;10.60;45.50;;;;;;20534;6753;329092;-89
2024/01/01 11:51:13;;;;;;;6.80;1.47;;;10.50;45.40;;;;;;20810;6770;117225;-92
2024/01/01 11:53:49;;;;;;;3.87;1.93;;;10.60;45.50;;;;;;20927;6756;117667;-87
2024/01/01 11:56:24;;;;;;;2.33;1.90;;;10.50;45.70;;;;;;20892;6797;117263;-91
2024/01/01 11:59:00;;;;;;;1.50;1.17;;;10.30;46.00;;;;;;20829;6797;119744;-90
2024/01/01 12:01:36;;;;;;;3.42;1.25;;;10.40;46.30;;;;;;20773;6738;307246;-88
2024/01/01 12:04:12;;;;;;;3.03;1.40;;;10.50;45.60;;;;;;20989;6738;116863;-88
2024/01/01 12:20:40;;;;;;;3.97;1.45;;;10.30;45.80;;;;;;20621;6642;336234;-86
2024/01/01 12:23:09;;;;;;;5.00;1.67;;;10.50;45.30;;;;;;20515;6863;316040;-84
2024/01/01 12:25:35;;;;;;;4.00;1.30;;;11.20;43.90;;;;;;20699;6871;117465;-87
2024/01/01 12:28:05;;;;;;;4.28;1.60;;;11.40;43.00;;;;;;20519;6863;307749;-86
2024/01/01 12:30:39;;;;;;;4.17;1.70;;;11.70;42.20;;;;;;20486;6863;309586;-85
2024/01/01 12:33:04;;;;;;;3.37;1.80;;;11.70;42.20;;;;;;20701;6871;116566;-85
2024/01/01 12:35:32;;;;;;;3.53;1.23;;;11.40;42.70;;;;;;20691;6871;117392;-87
2024/01/01 12:37:59;;;;;;;2.63;1.27;;;11.40;42.60;;;;;;20670;6871;120998;-87
2024/01/01 12:40:29;;;;;;;3.17;1.33;;;11.20;43.10;;;;;;20664;6863;117484;-86
2024/01/01 12:42:56;;;;;;;2.45;1.42;;;11.10;43.10;;;;;;20486;6863;280145;-86
2024/01/01 12:45:22;;;;;;;4.80;1.73;;;11.10;43.10;;;;;;20698;6863;117050;-86
2024/01/01 12:47:48;;;;;;;10.23;2.83;;;11.10;43.20;;;;;;20523;6863;278778;-89
2024/01/01 12:50:14;;;;;;;5.50;1.23;;;11.20;43.00;;;;;;20707;6863;120348;-88
2024/01/01 12:52:40;;;;;;;4.12;1.55;;;11.10;43.00;;;;;;20436;6863;281772;-88
2024/01/01 12:55:05;;;;;;;5.80;1.73;;;11.20;42.70;;;;;;20428;6872;286017;-87
2024/01/01 12:57:31;;;;;;;5.13;2.37;;;11.50;42.20;;;;;;20691;6872;117453;-87
2024/01/01 13:00:00;;;;;;;4.13;1.30;;;11.40;42.20;;;;;;20718;6863;117670;-87